< < Back
Terminal Aerodrome Forecast


Current Version              Previous Versions:   1  2  3  4  5  6  7  8  9  

Terminal Aerodrome Forecast

064
FTUS42 KCHS 302339
TAFCHS
TAF
KCHS 302339Z 3100/3124 12008KT P6SM -RA SCT030 BKN100
     FM310130 12007KT 6SM RA BR SCT010 BKN020
     FM310700 13009KT 5SM BR VCSH SCT008 SCT012 BKN025
     FM311430 11008KT P6SM SCT020 BKN040
     FM312200 17009KT P6SM SCT025 BKN100=



Latest METAR

805
SAUS80 KWBC 310000 RRC
MTRCHS
METAR KCHS 302356Z 12010KT 10SM FEW014 SCT050 OVC110 24/22 A3009 RMK AO2
SLP188 60051 T02390217 10250 20233 55004


USA.gov is the U.S. government's official web portal to all federal, state and local government web resources and services.